Time;durP1;ratioP1;P1;durP2;ratioP2;P2;SDS_P1;SDS_P2;PMS_P1;PMS_P2;Temp;Humidity;BMP_temperature;BMP_pressure;BME280_temperature;BME280_humidity;BME280_pressure;Samples;Min_cycle;Max_cycle;Signal;HPM_P1;HPM_P2
2022/01/17 00:02:55;;;;;;;302.17;237.93;;;19.10;39.30;;;;;;4755141;55;21006;-35
2022/01/17 00:07:56;;;;;;;309.05;242.07;;;19.10;39.30;;;;;;4739385;55;21622;-36
2022/01/17 00:12:59;;;;;;;314.05;239.73;;;19.10;39.30;;;;;;4763710;55;21488;-38
2022/01/17 00:24:54;;;;;;;304.92;236.43;;;19.00;39.20;;;;;;4741383;55;21045;-33
2022/01/17 00:29:55;;;;;;;306.63;244.27;;;19.10;39.30;;;;;;4739058;55;21524;-37
2022/01/17 00:34:56;;;;;;;297.85;228.98;;;19.00;39.20;;;;;;4748488;55;21006;-37
2022/01/17 00:39:57;;;;;;;308.73;234.95;;;19.00;39.30;;;;;;4738974;55;21077;-37
2022/01/17 00:45:01;;;;;;;295.05;221.87;;;19.00;39.10;;;;;;4756065;55;21055;-37
2022/01/17 00:50:03;;;;;;;304.58;240.02;;;19.00;39.10;;;;;;4761358;55;21547;-35
2022/01/17 00:55:04;;;;;;;309.65;241.10;;;19.00;39.00;;;;;;4757852;55;21022;-34
2022/01/17 01:00:07;;;;;;;293.88;227.20;;;19.00;39.70;;;;;;4748689;55;21094;-36
2022/01/17 01:05:09;;;;;;;292.73;223.30;;;19.00;39.70;;;;;;4738482;55;21065;-35
2022/01/17 01:10:11;;;;;;;294.90;219.65;;;19.00;39.00;;;;;;4754424;55;21076;-33
2022/01/17 01:15:19;;;;;;;305.33;234.05;;;19.00;39.00;;;;;;4796227;55;20997;-36
2022/01/17 01:20:52;;;;;;;304.70;232.45;;;19.00;38.90;;;;;;4748593;55;21622;-35
2022/01/17 01:31:21;;;;;;;303.37;233.35;;;19.00;38.90;;;;;;4737510;59;21149;-35
2022/01/17 01:36:27;;;;;;;297.67;229.87;;;19.00;39.00;;;;;;4742380;55;21618;-37
2022/01/17 01:41:28;;;;;;;292.65;224.32;;;19.00;38.90;;;;;;4752245;55;21567;-31
2022/01/17 01:46:29;;;;;;;304.42;233.85;;;19.00;38.80;;;;;;4761260;55;21033;-32
2022/01/17 01:51:29;;;;;;;289.90;225.85;;;19.00;38.90;;;;;;4754861;55;21042;-36
2022/01/17 01:56:35;;;;;;;298.67;227.87;;;19.00;38.90;;;;;;4737873;59;21002;-34
2022/01/17 02:01:36;;;;;;;285.40;216.57;;;19.00;38.80;;;;;;4756883;55;21049;-35
2022/01/17 02:06:37;;;;;;;299.10;226.50;;;19.00;38.80;;;;;;4765027;55;21145;-37
2022/01/17 02:11:39;;;;;;;285.48;217.82;;;19.00;38.80;;;;;;4756024;55;21078;-36
2022/01/17 02:16:41;;;;;;;291.23;221.82;;;19.00;38.80;;;;;;4773664;55;21081;-39
2022/01/17 02:21:48;;;;;;;293.30;224.30;;;19.00;38.70;;;;;;4745453;55;21177;-36
2022/01/17 02:26:51;;;;;;;291.63;224.20;;;19.00;38.70;;;;;;4738441;59;21065;-36
2022/01/17 02:31:52;;;;;;;289.92;221.20;;;19.00;38.70;;;;;;4759445;55;21472;-34
2022/01/17 02:36:54;;;;;;;287.83;219.15;;;19.00;38.70;;;;;;4766414;55;21018;-36
2022/01/17 02:41:54;;;;;;;289.77;221.87;;;19.00;38.70;;;;;;4740139;55;21014;-36
2022/01/17 02:46:55;;;;;;;287.77;220.98;;;19.00;38.70;;;;;;4738578;55;21478;-37
2022/01/17 02:51:56;;;;;;;282.40;212.80;;;19.00;38.70;;;;;;4740617;55;21017;-38
2022/01/17 02:56:57;;;;;;;277.75;207.70;;;19.00;38.60;;;;;;4792270;55;21010;-31
2022/01/17 03:01:59;;;;;;;278.52;215.87;;;19.00;38.60;;;;;;4738096;59;21013;-39
2022/01/17 03:07:00;;;;;;;270.48;206.32;;;19.00;38.60;;;;;;4740139;55;21476;-35
2022/01/17 03:12:01;;;;;;;273.38;208.77;;;19.00;38.60;;;;;;4741146;55;21046;-36
2022/01/17 03:17:03;;;;;;;271.83;205.93;;;19.00;38.60;;;;;;4746148;55;20998;-34
2022/01/17 03:22:03;;;;;;;279.98;213.30;;;19.00;38.60;;;;;;4765251;55;21611;-37
2022/01/17 03:27:05;;;;;;;269.70;203.82;;;19.00;38.50;;;;;;4738636;59;21011;-36
2022/01/17 03:32:06;;;;;;;271.80;204.77;;;19.00;38.60;;;;;;4737544;59;21082;-36
2022/01/17 03:37:07;;;;;;;272.50;208.38;;;19.00;38.50;;;;;;4784961;55;21046;-34
2022/01/17 03:42:08;;;;;;;275.30;208.87;;;19.00;38.50;;;;;;4759027;55;21477;-38
2022/01/17 03:47:11;;;;;;;265.33;202.00;;;19.00;38.60;;;;;;4757261;55;21005;-37
2022/01/17 03:52:11;;;;;;;265.95;202.95;;;19.00;38.50;;;;;;4737939;59;21520;-38
2022/01/17 03:57:12;;;;;;;266.52;204.77;;;19.00;38.50;;;;;;4780211;55;21014;-37
2022/01/17 04:02:13;;;;;;;263.30;204.80;;;19.00;38.40;;;;;;4776838;55;21073;-35
2022/01/17 04:07:14;;;;;;;254.40;196.02;;;19.00;38.40;;;;;;4741295;55;20990;-38
2022/01/17 04:12:15;;;;;;;263.92;198.82;;;19.00;38.50;;;;;;4738378;59;21009;-38
2022/01/17 04:17:16;;;;;;;259.55;196.57;;;19.00;38.50;;;;;;4741040;55;21567;-39
2022/01/17 04:22:16;;;;;;;253.12;196.10;;;19.00;38.40;;;;;;4742453;55;21547;-36
2022/01/17 04:27:17;;;;;;;255.87;193.18;;;18.90;38.40;;;;;;4742639;55;21038;-32
2022/01/17 04:32:18;;;;;;;259.17;194.57;;;18.90;38.40;;;;;;4758099;55;20998;-38
2022/01/17 04:37:19;;;;;;;248.40;184.63;;;19.00;38.50;;;;;;4743660;55;21022;-37
2022/01/17 04:42:27;;;;;;;252.05;190.35;;;19.00;38.50;;;;;;4756416;55;21127;-36
2022/01/17 04:47:31;;;;;;;253.10;189.35;;;18.90;38.50;;;;;;4772986;55;21017;-38
2022/01/17 04:52:32;;;;;;;257.90;196.95;;;18.90;38.50;;;;;;4738371;59;21892;-35
2022/01/17 04:57:32;;;;;;;250.95;189.73;;;18.90;38.60;;;;;;4752577;55;21057;-38
2022/01/17 05:02:33;;;;;;;253.48;190.48;;;19.00;38.70;;;;;;4738080;55;21109;-33
2022/01/17 05:07:35;;;;;;;246.77;188.95;;;19.00;38.70;;;;;;4738595;59;21117;-37
2022/01/17 05:12:36;;;;;;;242.30;183.50;;;18.90;38.70;;;;;;4744778;55;21965;-37
2022/01/17 05:17:43;;;;;;;230.62;170.48;;;19.00;38.80;;;;;;4754859;55;21037;-34
2022/01/17 05:22:44;;;;;;;229.10;175.55;;;18.90;38.80;;;;;;4762322;55;21103;-36
2022/01/17 05:27:45;;;;;;;238.77;179.32;;;18.90;38.80;;;;;;4744630;55;21512;-33
2022/01/17 05:32:47;;;;;;;234.82;175.85;;;18.90;38.90;;;;;;4746546;55;21041;-34
2022/01/17 05:37:49;;;;;;;225.45;170.95;;;19.00;39.10;;;;;;4750015;55;21102;-36
2022/01/17 05:42:50;;;;;;;230.95;172.35;;;18.90;39.10;;;;;;4739784;55;21148;-36
2022/01/17 05:47:51;;;;;;;227.25;170.73;;;19.00;39.30;;;;;;4743957;55;21532;-37
2022/01/17 05:52:51;;;;;;;228.57;173.30;;;18.90;39.30;;;;;;4743039;55;21511;-36
2022/01/17 05:57:52;;;;;;;231.30;174.75;;;19.00;39.50;;;;;;4741195;55;21021;-35
2022/01/17 06:02:53;;;;;;;224.20;168.80;;;19.00;39.50;;;;;;4770585;55;21070;-37
2022/01/17 06:07:54;;;;;;;226.77;172.25;;;18.90;39.60;;;;;;4746662;55;21122;-37
2022/01/17 06:12:56;;;;;;;222.57;166.20;;;18.90;39.50;;;;;;4792616;55;21464;-37
2022/01/17 06:17:57;;;;;;;218.00;166.57;;;18.90;39.50;;;;;;4744684;55;21575;-36
2022/01/17 06:22:58;;;;;;;222.37;166.55;;;18.90;39.50;;;;;;4745972;55;21053;-38
2022/01/17 06:27:59;;;;;;;221.32;162.30;;;18.90;39.50;;;;;;4738904;55;21552;-36
2022/01/17 06:33:02;;;;;;;226.20;167.45;;;18.90;39.60;;;;;;4737743;59;21002;-36
2022/01/17 06:38:03;;;;;;;216.57;163.35;;;18.90;39.60;;;;;;4744816;55;21492;-35
2022/01/17 06:43:08;;;;;;;220.35;163.90;;;18.90;39.60;;;;;;4752531;55;21061;-38
2022/01/17 06:48:09;;;;;;;217.25;163.62;;;18.90;39.60;;;;;;4763398;55;21559;-37
2022/01/17 06:53:10;;;;;;;224.12;169.07;;;18.90;39.60;;;;;;4738543;59;21018;-37
2022/01/17 06:58:11;;;;;;;216.10;163.12;;;18.90;39.60;;;;;;4753096;55;21021;-35
2022/01/17 07:03:12;;;;;;;212.82;159.20;;;18.90;39.60;;;;;;4749743;55;21002;-34
2022/01/17 07:08:13;;;;;;;214.98;163.85;;;18.90;39.60;;;;;;4763913;55;21050;-34
2022/01/17 07:13:14;;;;;;;211.93;160.00;;;18.90;39.60;;;;;;4765760;55;21085;-37
2022/01/17 07:18:14;;;;;;;207.80;155.93;;;18.90;40.20;;;;;;4820006;55;21054;-35
2022/01/17 07:23:16;;;;;;;219.70;166.18;;;18.90;39.60;;;;;;4736857;59;21082;-34
2022/01/17 07:28:17;;;;;;;213.77;161.85;;;18.90;39.60;;;;;;4756680;55;20978;-32
2022/01/17 07:33:20;;;;;;;217.90;161.98;;;18.90;39.60;;;;;;4761145;55;21078;-35
2022/01/17 07:38:21;;;;;;;212.70;158.45;;;18.90;39.70;;;;;;4761821;55;21472;-36
2022/01/17 07:43:22;;;;;;;217.37;163.70;;;18.90;39.60;;;;;;4760516;55;20998;-33
2022/01/17 07:53:42;;;;;;;224.93;167.02;;;18.90;39.60;;;;;;4738290;55;21065;-35
2022/01/17 07:58:44;;;;;;;208.38;157.05;;;18.90;39.60;;;;;;4751290;55;21049;-35
2022/01/17 08:03:44;;;;;;;218.30;163.70;;;18.90;39.60;;;;;;4760645;55;21495;-35
2022/01/17 08:08:47;;;;;;;300.80;232.43;;;18.90;39.60;;;;;;4757928;55;21069;-34
2022/01/17 08:13:48;;;;;;;279.15;217.68;;;18.90;38.70;;;;;;4737322;59;21575;-36
2022/01/17 08:18:49;;;;;;;298.92;222.73;;;18.80;38.30;;;;;;4749709;55;21026;-29
2022/01/17 08:23:53;;;;;;;285.98;214.45;;;19.10;39.60;;;;;;4763269;55;21071;-31
2022/01/17 08:28:54;;;;;;;286.12;216.05;;;19.40;39.30;;;;;;4738013;59;21440;-36
2022/01/17 08:33:55;;;;;;;269.48;203.23;;;19.70;39.70;;;;;;4737509;55;21034;-32
2022/01/17 08:38:56;;;;;;;278.15;208.70;;;19.80;39.90;;;;;;4740141;55;21508;-32
2022/01/17 08:43:57;;;;;;;261.65;195.38;;;20.00;40.10;;;;;;4765178;55;21050;-36
2022/01/17 08:48:57;;;;;;;262.12;198.73;;;20.10;40.40;;;;;;4738798;55;21058;-35
2022/01/17 08:53:59;;;;;;;257.40;194.80;;;20.30;40.60;;;;;;4741531;55;21056;-36
2022/01/17 08:59:02;;;;;;;258.17;197.65;;;20.40;41.50;;;;;;4746731;55;21074;-34
2022/01/17 09:04:03;;;;;;;262.27;196.87;;;20.50;40.80;;;;;;4790458;55;21492;-32
2022/01/17 09:09:04;;;;;;;255.30;189.48;;;20.60;41.10;;;;;;4738191;55;21018;-33
2022/01/17 09:14:05;;;;;;;265.23;200.05;;;20.70;41.20;;;;;;4739345;55;21034;-35
2022/01/17 09:19:07;;;;;;;255.43;195.25;;;20.80;41.40;;;;;;4736803;59;21069;-38
2022/01/17 09:24:08;;;;;;;254.77;193.02;;;20.80;41.50;;;;;;4795250;55;21574;-36
2022/01/17 09:29:10;;;;;;;258.42;199.20;;;20.90;41.70;;;;;;4741456;55;20986;-32
2022/01/17 09:34:11;;;;;;;259.80;199.77;;;21.00;41.90;;;;;;4758863;55;21159;-31
2022/01/17 09:39:12;;;;;;;256.00;194.57;;;21.10;41.90;;;;;;4761144;55;21073;-34
2022/01/17 09:44:13;;;;;;;262.90;199.80;;;21.10;42.00;;;;;;4753329;55;21559;-37
2022/01/17 09:54:48;;;;;;;290.15;215.40;;;21.20;42.00;;;;;;4748173;55;21042;-36
2022/01/17 09:59:52;;;;;;;270.17;205.98;;;21.30;42.00;;;;;;4760597;55;21006;-35
2022/01/17 10:04:53;;;;;;;271.48;205.68;;;21.30;42.20;;;;;;4756892;55;21013;-36
2022/01/17 10:09:58;;;;;;;274.65;208.85;;;21.30;42.50;;;;;;4738427;55;21464;-34
2022/01/17 10:15:01;;;;;;;275.87;205.87;;;21.30;42.50;;;;;;4775011;55;21536;-33
2022/01/17 10:20:05;;;;;;;270.23;209.02;;;21.30;42.70;;;;;;4745342;55;21540;-34
2022/01/17 10:26:01;;;;;;;276.55;212.80;;;21.40;42.90;;;;;;4737423;59;21532;-36
2022/01/17 10:36:47;;;;;;;277.83;213.13;;;21.50;43.30;;;;;;4737621;55;21038;-36
2022/01/17 10:41:48;;;;;;;271.55;211.77;;;21.50;43.50;;;;;;4738664;55;21101;-41
2022/01/17 10:46:48;;;;;;;279.05;209.02;;;21.50;43.60;;;;;;4747327;55;21029;-37
2022/01/17 10:51:51;;;;;;;280.02;215.25;;;21.50;43.70;;;;;;4737568;59;21069;-39
2022/01/17 10:56:56;;;;;;;279.77;213.57;;;21.50;43.90;;;;;;4737653;59;21571;-37
2022/01/17 11:01:59;;;;;;;276.15;212.00;;;21.60;44.00;;;;;;4753607;55;21996;-32
2022/01/17 11:07:06;;;;;;;284.25;219.95;;;21.60;44.10;;;;;;4752639;55;21022;-36
2022/01/17 11:12:11;;;;;;;281.38;213.30;;;21.60;44.20;;;;;;4737533;56;20998;-35
2022/01/17 11:17:36;;;;;;;279.02;216.85;;;21.60;44.30;;;;;;4813555;55;21134;-36
2022/01/17 11:22:40;;;;;;;279.65;217.37;;;21.70;44.40;;;;;;4738235;55;21587;-35
2022/01/17 11:27:42;;;;;;;284.27;219.82;;;21.70;44.50;;;;;;4737322;59;20994;-29
2022/01/17 11:32:48;;;;;;;280.85;221.87;;;21.70;44.60;;;;;;4751950;55;21524;-34
2022/01/17 11:37:56;;;;;;;277.73;215.00;;;21.70;44.70;;;;;;4810175;55;21006;-35
2022/01/17 11:42:59;;;;;;;278.92;215.70;;;21.80;44.80;;;;;;4744886;55;21463;-34
2022/01/17 11:48:17;;;;;;;271.92;211.35;;;21.80;44.90;;;;;;4742421;55;21483;-38
2022/01/17 11:53:42;;;;;;;276.90;216.05;;;21.80;44.90;;;;;;4770305;55;21511;-35
2022/01/17 11:58:48;;;;;;;276.92;213.43;;;21.80;45.00;;;;;;4739008;55;21113;-35
2022/01/17 12:03:56;;;;;;;268.57;210.67;;;21.80;45.10;;;;;;4738148;59;21524;-34
2022/01/17 12:09:17;;;;;;;285.77;218.80;;;21.80;45.20;;;;;;4757302;55;21057;-32
2022/01/17 12:14:27;;;;;;;268.73;205.02;;;21.90;45.10;;;;;;4737678;55;21010;-36
2022/01/17 12:19:28;;;;;;;265.00;200.10;;;21.80;44.90;;;;;;4776748;55;21540;-35
2022/01/17 12:24:41;;;;;;;264.00;206.98;;;21.80;44.70;;;;;;4743033;55;20994;-37
2022/01/17 12:30:25;;;;;;;264.23;203.98;;;21.80;44.50;;;;;;4737677;59;21459;-35
2022/01/17 12:35:29;;;;;;;263.42;204.27;;;21.80;44.30;;;;;;4748075;55;21045;-36
2022/01/17 12:40:42;;;;;;;262.23;205.43;;;21.80;44.10;;;;;;4761010;55;21548;-36
2022/01/17 12:45:48;;;;;;;256.20;195.52;;;21.80;44.00;;;;;;4760353;55;21066;-37
2022/01/17 12:50:52;;;;;;;255.75;196.93;;;21.90;44.20;;;;;;4751746;55;21073;-36
2022/01/17 12:55:59;;;;;;;252.10;193.32;;;21.90;44.30;;;;;;4753741;55;21002;-37
2022/01/17 13:01:12;;;;;;;256.13;194.37;;;21.90;44.40;;;;;;4736822;59;21035;-37
2022/01/17 13:06:17;;;;;;;246.30;193.40;;;21.90;44.40;;;;;;4782171;55;20974;-37
2022/01/17 13:11:22;;;;;;;243.40;190.75;;;22.00;44.50;;;;;;4768994;55;21065;-37
2022/01/17 13:16:23;;;;;;;246.52;186.52;;;22.00;44.60;;;;;;4756446;55;21469;-35
2022/01/17 13:21:24;;;;;;;246.87;189.87;;;22.00;44.80;;;;;;4736327;59;21103;-37
2022/01/17 13:26:35;;;;;;;244.65;186.85;;;22.00;44.80;;;;;;4757640;55;21411;-36
2022/01/17 13:31:37;;;;;;;239.55;189.35;;;22.10;44.90;;;;;;4739553;55;21435;-37
2022/01/17 13:36:38;;;;;;;239.30;189.10;;;22.10;45.00;;;;;;4763457;55;21503;-40
2022/01/17 13:41:42;;;;;;;235.02;180.20;;;22.10;45.00;;;;;;4740581;55;21013;-38
2022/01/17 13:46:56;;;;;;;232.40;180.93;;;22.10;45.10;;;;;;4776112;55;21122;-37
2022/01/17 13:51:58;;;;;;;232.82;182.68;;;22.10;45.10;;;;;;4740848;55;21094;-33
2022/01/17 13:57:02;;;;;;;237.57;183.27;;;22.10;45.20;;;;;;4743594;55;21017;-34
2022/01/17 14:02:16;;;;;;;233.75;182.88;;;22.20;45.30;;;;;;4759616;55;21010;-36
2022/01/17 14:07:26;;;;;;;234.45;181.73;;;22.20;45.30;;;;;;4764188;55;21027;-36
2022/01/17 14:12:28;;;;;;;234.75;178.45;;;22.20;45.40;;;;;;4751389;55;21535;-35
2022/01/17 14:17:30;;;;;;;233.05;179.87;;;22.30;45.50;;;;;;4738330;55;21096;-36
2022/01/17 14:22:31;;;;;;;229.87;180.48;;;22.30;45.40;;;;;;4772105;55;21089;-37
2022/01/17 14:27:32;;;;;;;231.18;178.32;;;22.30;45.50;;;;;;4737658;59;21516;-35
2022/01/17 14:32:33;;;;;;;223.07;169.90;;;22.30;45.50;;;;;;4748356;55;21448;-36
2022/01/17 14:37:34;;;;;;;233.98;178.98;;;22.30;45.50;;;;;;4756295;55;21050;-38
2022/01/17 14:42:46;;;;;;;230.10;176.25;;;22.40;45.70;;;;;;4737474;59;21538;-37
2022/01/17 14:47:49;;;;;;;226.02;174.57;;;22.40;45.50;;;;;;4755958;55;21464;-38
2022/01/17 14:52:53;;;;;;;225.15;171.13;;;22.40;46.30;;;;;;4739082;55;21042;-34
2022/01/17 15:03:16;;;;;;;224.85;172.43;;;22.40;45.90;;;;;;4737967;55;21041;-35
2022/01/17 15:08:17;;;;;;;220.70;171.27;;;22.40;46.00;;;;;;4739368;55;21476;-32
2022/01/17 15:13:18;;;;;;;221.27;170.12;;;22.40;45.80;;;;;;4760930;55;21022;-36
2022/01/17 15:18:19;;;;;;;224.62;173.35;;;22.30;45.50;;;;;;4741207;55;21014;-40
2022/01/17 15:23:22;;;;;;;228.55;171.55;;;22.30;45.40;;;;;;4763752;55;21130;-39
2022/01/17 15:28:24;;;;;;;222.60;168.68;;;22.30;45.20;;;;;;4750055;55;21077;-40
2022/01/17 15:33:26;;;;;;;218.40;167.68;;;22.30;45.10;;;;;;4745535;55;21087;-38
2022/01/17 15:38:27;;;;;;;215.10;163.85;;;22.30;44.90;;;;;;4761443;55;21014;-37
2022/01/17 15:43:27;;;;;;;217.15;164.10;;;22.30;44.70;;;;;;4740923;55;21828;-35
2022/01/17 15:48:28;;;;;;;212.15;161.40;;;22.20;44.50;;;;;;4790400;55;21089;-37
2022/01/17 15:53:29;;;;;;;221.20;167.27;;;22.20;44.50;;;;;;4769000;55;21053;-38
2022/01/17 15:58:30;;;;;;;222.25;173.20;;;22.20;44.40;;;;;;4756554;55;21121;-37
2022/01/17 16:03:31;;;;;;;216.18;167.60;;;22.10;44.20;;;;;;4739262;55;21163;-37
2022/01/17 16:08:31;;;;;;;217.70;172.57;;;22.10;44.10;;;;;;4739847;55;21105;-39
2022/01/17 16:13:32;;;;;;;219.15;170.20;;;22.10;44.00;;;;;;4776734;55;21473;-38
2022/01/17 16:18:33;;;;;;;222.60;169.60;;;22.10;43.90;;;;;;4738216;55;21030;-39
2022/01/17 16:23:35;;;;;;;220.68;170.40;;;22.00;43.80;;;;;;4748206;55;21034;-36
2022/01/17 16:28:36;;;;;;;224.30;173.35;;;22.00;43.70;;;;;;4766074;55;21508;-36
2022/01/17 16:33:38;;;;;;;222.55;171.90;;;22.00;44.20;;;;;;4740045;55;21479;-37
2022/01/17 16:38:39;;;;;;;222.35;172.95;;;22.00;43.50;;;;;;4741984;55;21095;-38
2022/01/17 16:43:43;;;;;;;227.32;179.80;;;22.00;43.40;;;;;;4755039;55;21355;-38
2022/01/17 16:48:45;;;;;;;223.80;172.13;;;22.00;43.30;;;;;;4784866;55;21515;-37
2022/01/17 16:53:46;;;;;;;219.02;172.60;;;22.00;43.20;;;;;;4809011;55;21416;-38
2022/01/17 16:58:47;;;;;;;228.12;177.32;;;22.00;43.20;;;;;;4757791;55;21090;-36
2022/01/17 17:03:48;;;;;;;227.00;174.62;;;22.00;43.10;;;;;;4749110;55;21002;-34
2022/01/17 17:08:49;;;;;;;225.65;175.55;;;21.90;43.00;;;;;;4740930;55;21042;-38
2022/01/17 17:13:50;;;;;;;220.60;166.70;;;22.00;43.00;;;;;;4760200;55;21526;-37
2022/01/17 17:18:50;;;;;;;219.60;172.85;;;22.00;42.90;;;;;;4749618;55;21161;-36
2022/01/17 17:23:51;;;;;;;217.62;169.90;;;21.90;42.80;;;;;;4738028;55;21063;-36
2022/01/17 17:28:53;;;;;;;216.50;171.70;;;21.90;42.70;;;;;;4784665;55;21464;-36
2022/01/17 17:33:56;;;;;;;228.65;174.90;;;22.00;43.50;;;;;;4785712;55;21046;-37
2022/01/17 17:38:59;;;;;;;222.43;174.35;;;21.90;42.60;;;;;;4738875;55;21571;-38
2022/01/17 17:44:01;;;;;;;231.77;176.43;;;22.00;42.60;;;;;;4884737;55;21484;-42
2022/01/17 17:49:03;;;;;;;227.25;176.52;;;22.00;42.50;;;;;;4750945;55;21500;-36
2022/01/17 17:54:05;;;;;;;228.88;174.90;;;22.00;42.40;;;;;;4751838;55;20978;-39
2022/01/17 17:59:05;;;;;;;229.87;183.05;;;21.90;42.30;;;;;;4745807;55;21034;-37
2022/01/17 18:04:07;;;;;;;227.85;176.02;;;21.90;42.30;;;;;;4750105;55;21073;-39
2022/01/17 18:09:10;;;;;;;234.77;186.32;;;22.00;42.30;;;;;;4775288;55;21017;-39
2022/01/17 18:14:11;;;;;;;236.15;185.37;;;22.00;42.20;;;;;;4769948;55;21148;-35
2022/01/17 18:19:12;;;;;;;236.25;187.60;;;22.00;42.20;;;;;;4772599;55;21125;-38
2022/01/17 18:24:13;;;;;;;235.18;185.12;;;22.00;42.20;;;;;;4753514;55;21113;-39
2022/01/17 18:29:14;;;;;;;237.12;190.30;;;22.00;42.10;;;;;;4744619;55;21089;-38
2022/01/17 18:34:16;;;;;;;236.90;188.93;;;22.00;42.10;;;;;;4737732;59;21101;-38
2022/01/17 18:39:23;;;;;;;240.65;192.95;;;22.00;42.10;;;;;;4778072;55;21487;-40
2022/01/17 18:44:24;;;;;;;242.87;190.68;;;22.00;42.00;;;;;;4756398;55;21463;-40
2022/01/17 18:49:31;;;;;;;243.77;191.50;;;22.00;42.00;;;;;;4751580;55;21085;-38
2022/01/17 18:54:32;;;;;;;;;;;22.00;41.90;;;;;;4755411;55;21571;-36
2022/01/17 18:59:34;;;;;;;254.93;198.38;;;22.00;41.90;;;;;;4755082;55;20141;-38
2022/01/17 19:04:36;;;;;;;253.37;196.32;;;22.00;41.80;;;;;;4739556;55;21519;-39
2022/01/17 19:09:37;;;;;;;252.77;199.87;;;22.00;41.80;;;;;;4755533;55;21050;-38
2022/01/17 19:14:38;;;;;;;254.10;198.15;;;22.00;41.80;;;;;;4772114;55;21046;-40
2022/01/17 19:24:59;;;;;;;253.07;196.32;;;22.00;41.70;;;;;;4738155;55;21021;-38
2022/01/17 19:30:00;;;;;;;259.67;202.85;;;22.00;41.70;;;;;;4762585;55;21038;-38
2022/01/17 19:35:01;;;;;;;251.05;202.10;;;22.00;42.30;;;;;;4758323;55;21105;-39
2022/01/17 19:40:04;;;;;;;264.48;201.40;;;22.00;41.60;;;;;;4746203;55;21117;-38
2022/01/17 19:45:08;;;;;;;258.15;203.40;;;22.00;41.60;;;;;;4769676;55;21484;-38
2022/01/17 19:50:11;;;;;;;259.77;204.32;;;22.00;41.50;;;;;;4749366;55;21551;-36
2022/01/17 19:55:11;;;;;;;258.05;202.65;;;22.00;41.50;;;;;;4765303;55;20990;-34
2022/01/17 20:00:14;;;;;;;262.88;208.00;;;22.00;41.40;;;;;;4761411;55;22195;-40
2022/01/17 20:05:14;;;;;;;269.10;207.70;;;22.00;41.40;;;;;;4800095;55;21210;-36
2022/01/17 20:10:18;;;;;;;265.23;210.07;;;22.00;41.40;;;;;;4744589;55;21965;-36
2022/01/17 20:15:19;;;;;;;273.48;213.82;;;22.10;41.40;;;;;;4738306;59;21615;-38
2022/01/17 20:20:21;;;;;;;264.48;211.20;;;22.00;41.30;;;;;;4761519;55;21026;-37
2022/01/17 20:25:22;;;;;;;267.42;211.43;;;22.00;41.30;;;;;;4762738;55;21034;-37
2022/01/17 20:30:23;;;;;;;261.73;207.18;;;22.00;41.30;;;;;;4738128;59;21567;-36
2022/01/17 20:35:24;;;;;;;264.88;212.65;;;22.10;41.30;;;;;;4750080;55;21018;-38
2022/01/17 20:40:26;;;;;;;275.05;215.40;;;22.00;41.20;;;;;;4772174;55;21045;-38
2022/01/17 20:45:28;;;;;;;273.65;216.63;;;22.00;41.20;;;;;;4738787;55;21006;-38
2022/01/17 20:50:29;;;;;;;269.92;214.02;;;22.10;41.20;;;;;;4753502;55;21479;-35
2022/01/17 20:55:30;;;;;;;269.42;211.57;;;22.10;41.10;;;;;;4748044;55;21065;-37
2022/01/17 21:00:32;;;;;;;273.20;217.77;;;22.10;41.10;;;;;;4740184;55;21552;-35
2022/01/17 21:05:33;;;;;;;270.77;215.93;;;22.10;41.10;;;;;;4737823;56;21014;-32
2022/01/17 21:10:34;;;;;;;267.50;210.50;;;22.10;41.00;;;;;;4773422;55;21571;-34
2022/01/17 21:15:34;;;;;;;263.45;204.60;;;22.10;41.00;;;;;;4739618;55;21066;-37
2022/01/17 21:20:36;;;;;;;270.65;213.18;;;22.10;40.90;;;;;;4804842;55;21519;-37
2022/01/17 21:25:40;;;;;;;272.52;212.68;;;22.10;40.90;;;;;;4775279;55;21552;-35
2022/01/17 21:30:41;;;;;;;268.73;208.55;;;22.10;40.90;;;;;;4769971;55;21463;-37
2022/01/17 21:35:42;;;;;;;270.27;210.35;;;22.10;40.80;;;;;;4738735;55;21121;-38
2022/01/17 21:40:43;;;;;;;273.30;211.85;;;22.10;40.80;;;;;;4743846;55;20997;-39
2022/01/17 21:45:44;;;;;;;272.02;215.18;;;22.10;40.70;;;;;;4738692;55;21013;-38
2022/01/17 21:50:45;;;;;;;280.40;219.87;;;22.10;40.80;;;;;;4743657;55;21556;-38
2022/01/17 21:55:46;;;;;;;268.30;212.50;;;22.20;40.70;;;;;;4739879;55;21097;-39
2022/01/17 22:00:47;;;;;;;262.95;197.70;;;22.10;40.60;;;;;;4737934;55;21091;-36
2022/01/17 22:05:48;;;;;;;265.00;207.30;;;22.10;40.60;;;;;;4743859;55;21010;-37
2022/01/17 22:10:51;;;;;;;264.27;202.87;;;22.10;40.50;;;;;;4756738;55;21547;-36
2022/01/17 22:15:53;;;;;;;258.02;202.90;;;22.20;40.50;;;;;;4744390;55;21483;-35
2022/01/17 22:20:54;;;;;;;269.08;213.23;;;22.20;40.50;;;;;;4740370;55;21520;-38
2022/01/17 22:25:55;;;;;;;265.42;205.95;;;22.10;40.40;;;;;;4765738;55;21488;-38
2022/01/17 22:30:56;;;;;;;254.27;195.15;;;22.10;40.50;;;;;;4758001;55;20990;-36
2022/01/17 22:35:57;;;;;;;265.23;207.98;;;22.10;40.50;;;;;;4737614;59;21006;-36
2022/01/17 22:40:58;;;;;;;257.87;199.05;;;22.10;40.50;;;;;;4739823;55;21476;-38
2022/01/17 22:46:03;;;;;;;252.95;197.43;;;22.00;40.50;;;;;;4749487;55;20996;-35
2022/01/17 22:51:04;;;;;;;248.70;191.43;;;21.90;40.60;;;;;;4775871;55;21488;-36
2022/01/17 22:56:05;;;;;;;257.98;197.98;;;21.90;40.60;;;;;;4760665;55;21073;-37
2022/01/17 23:01:06;;;;;;;240.85;186.10;;;21.90;40.60;;;;;;4758930;55;22036;-34
2022/01/17 23:06:07;;;;;;;242.32;189.73;;;21.90;40.60;;;;;;4738177;59;21042;-35
2022/01/17 23:11:07;;;;;;;239.68;182.02;;;21.90;40.50;;;;;;4737929;59;21058;-39
2022/01/17 23:16:12;;;;;;;234.12;179.40;;;21.90;40.50;;;;;;4739400;55;21519;-38
2022/01/17 23:21:14;;;;;;;232.55;179.80;;;21.90;40.50;;;;;;4754275;55;21504;-46
2022/01/17 23:26:15;;;;;;;222.98;174.00;;;21.90;40.40;;;;;;4739698;55;21078;-38
2022/01/17 23:36:41;;;;;;;218.68;167.15;;;21.90;40.30;;;;;;4743553;55;21014;-39
2022/01/17 23:41:44;;;;;;;216.98;167.20;;;21.90;40.30;;;;;;4749702;55;21013;-38
2022/01/17 23:46:45;;;;;;;216.88;164.77;;;21.90;39.70;;;;;;4748309;55;21014;-39
2022/01/17 23:51:46;;;;;;;208.95;159.30;;;21.90;40.30;;;;;;4741142;55;21596;-39
2022/01/17 23:56:47;;;;;;;215.62;166.45;;;21.90;40.30;;;;;;4737528;59;21503;-38
